sensor_id;sensor_type;location;lat;lon;timestamp;P1;durP1;ratioP1;P2;durP2;ratioP2
16654;SDS011;8441;51.344;7.022;2024-03-08T00:00:43;0.50;;;0.50;;
16654;SDS011;8441;51.344;7.022;2024-03-08T00:03:11;0.40;;;0.40;;
16654;SDS011;8441;51.344;7.022;2024-03-08T00:05:38;0.50;;;0.50;;
16654;SDS011;8441;51.344;7.022;2024-03-08T00:08:08;0.50;;;0.50;;
16654;SDS011;8441;51.344;7.022;2024-03-08T00:10:35;0.40;;;0.40;;
16654;SDS011;8441;51.344;7.022;2024-03-08T00:13:04;0.50;;;0.50;;
16654;SDS011;8441;51.344;7.022;2024-03-08T00:15:31;0.47;;;0.47;;
16654;SDS011;8441;51.344;7.022;2024-03-08T00:18:00;0.50;;;0.50;;
16654;SDS011;8441;51.344;7.022;2024-03-08T00:20:27;0.50;;;0.50;;
16654;SDS011;8441;51.344;7.022;2024-03-08T00:22:54;0.40;;;0.40;;
16654;SDS011;8441;51.344;7.022;2024-03-08T00:25:24;0.40;;;0.40;;
16654;SDS011;8441;51.344;7.022;2024-03-08T00:27:51;0.40;;;0.40;;
16654;SDS011;8441;51.344;7.022;2024-03-08T00:30:21;0.45;;;0.45;;
16654;SDS011;8441;51.344;7.022;2024-03-08T00:32:50;0.60;;;0.60;;
16654;SDS011;8441;51.344;7.022;2024-03-08T00:35:18;0.50;;;0.50;;
16654;SDS011;8441;51.344;7.022;2024-03-08T00:37:45;0.40;;;0.40;;
16654;SDS011;8441;51.344;7.022;2024-03-08T00:40:12;0.50;;;0.50;;
16654;SDS011;8441;51.344;7.022;2024-03-08T00:42:41;0.40;;;0.40;;
16654;SDS011;8441;51.344;7.022;2024-03-08T00:45:09;0.60;;;0.60;;
16654;SDS011;8441;51.344;7.022;2024-03-08T00:47:37;0.50;;;0.50;;
16654;SDS011;8441;51.344;7.022;2024-03-08T00:50:05;0.50;;;0.50;;
16654;SDS011;8441;51.344;7.022;2024-03-08T00:52:33;0.40;;;0.40;;
16654;SDS011;8441;51.344;7.022;2024-03-08T00:55:00;0.30;;;0.30;;
16654;SDS011;8441;51.344;7.022;2024-03-08T00:57:28;0.50;;;0.50;;
16654;SDS011;8441;51.344;7.022;2024-03-08T00:59:56;0.37;;;0.37;;
16654;SDS011;8441;51.344;7.022;2024-03-08T01:02:24;0.40;;;0.40;;
16654;SDS011;8441;51.344;7.022;2024-03-08T01:04:51;0.60;;;0.60;;
16654;SDS011;8441;51.344;7.022;2024-03-08T01:07:18;0.50;;;0.50;;
16654;SDS011;8441;51.344;7.022;2024-03-08T01:09:46;0.47;;;0.47;;
16654;SDS011;8441;51.344;7.022;2024-03-08T01:12:13;0.47;;;0.47;;
16654;SDS011;8441;51.344;7.022;2024-03-08T01:14:40;0.40;;;0.40;;
16654;SDS011;8441;51.344;7.022;2024-03-08T01:17:08;0.50;;;0.50;;
16654;SDS011;8441;51.344;7.022;2024-03-08T01:19:37;0.40;;;0.40;;
16654;SDS011;8441;51.344;7.022;2024-03-08T01:22:04;0.60;;;0.60;;
16654;SDS011;8441;51.344;7.022;2024-03-08T01:24:32;0.50;;;0.50;;
16654;SDS011;8441;51.344;7.022;2024-03-08T01:27:00;0.50;;;0.50;;
16654;SDS011;8441;51.344;7.022;2024-03-08T01:29:27;0.40;;;0.40;;
16654;SDS011;8441;51.344;7.022;2024-03-08T01:31:55;0.50;;;0.50;;
16654;SDS011;8441;51.344;7.022;2024-03-08T01:34:24;0.43;;;0.43;;
16654;SDS011;8441;51.344;7.022;2024-03-08T01:36:53;0.50;;;0.50;;
16654;SDS011;8441;51.344;7.022;2024-03-08T01:39:21;0.50;;;0.50;;
16654;SDS011;8441;51.344;7.022;2024-03-08T01:41:49;0.40;;;0.40;;
16654;SDS011;8441;51.344;7.022;2024-03-08T01:44:16;0.60;;;0.60;;
16654;SDS011;8441;51.344;7.022;2024-03-08T01:46:43;0.57;;;0.57;;
16654;SDS011;8441;51.344;7.022;2024-03-08T01:49:11;0.50;;;0.50;;
16654;SDS011;8441;51.344;7.022;2024-03-08T01:51:41;0.50;;;0.50;;
16654;SDS011;8441;51.344;7.022;2024-03-08T01:54:09;0.50;;;0.50;;
16654;SDS011;8441;51.344;7.022;2024-03-08T01:56:37;0.43;;;0.43;;
16654;SDS011;8441;51.344;7.022;2024-03-08T01:59:06;0.50;;;0.50;;
16654;SDS011;8441;51.344;7.022;2024-03-08T02:01:33;0.40;;;0.40;;
16654;SDS011;8441;51.344;7.022;2024-03-08T02:04:01;0.40;;;0.40;;
16654;SDS011;8441;51.344;7.022;2024-03-08T02:06:31;0.50;;;0.50;;
16654;SDS011;8441;51.344;7.022;2024-03-08T02:08:59;0.40;;;0.40;;
16654;SDS011;8441;51.344;7.022;2024-03-08T02:11:31;0.40;;;0.40;;
16654;SDS011;8441;51.344;7.022;2024-03-08T02:13:58;0.40;;;0.40;;
16654;SDS011;8441;51.344;7.022;2024-03-08T02:16:26;0.53;;;0.53;;
16654;SDS011;8441;51.344;7.022;2024-03-08T02:18:53;0.50;;;0.50;;
16654;SDS011;8441;51.344;7.022;2024-03-08T02:21:22;0.40;;;0.40;;
16654;SDS011;8441;51.344;7.022;2024-03-08T02:23:50;0.40;;;0.40;;
16654;SDS011;8441;51.344;7.022;2024-03-08T02:26:18;0.43;;;0.43;;
16654;SDS011;8441;51.344;7.022;2024-03-08T02:28:45;0.40;;;0.40;;
16654;SDS011;8441;51.344;7.022;2024-03-08T02:31:13;0.40;;;0.40;;
16654;SDS011;8441;51.344;7.022;2024-03-08T02:33:40;0.37;;;0.37;;
16654;SDS011;8441;51.344;7.022;2024-03-08T02:36:08;0.40;;;0.40;;
16654;SDS011;8441;51.344;7.022;2024-03-08T02:38:36;0.50;;;0.50;;
16654;SDS011;8441;51.344;7.022;2024-03-08T02:41:06;0.40;;;0.40;;
16654;SDS011;8441;51.344;7.022;2024-03-08T02:43:34;0.50;;;0.50;;
16654;SDS011;8441;51.344;7.022;2024-03-08T02:46:00;0.40;;;0.40;;
16654;SDS011;8441;51.344;7.022;2024-03-08T02:48:27;0.50;;;0.50;;
16654;SDS011;8441;51.344;7.022;2024-03-08T02:50:54;0.50;;;0.50;;
16654;SDS011;8441;51.344;7.022;2024-03-08T02:53:22;0.53;;;0.53;;
16654;SDS011;8441;51.344;7.022;2024-03-08T02:55:51;0.47;;;0.47;;
16654;SDS011;8441;51.344;7.022;2024-03-08T02:58:18;0.50;;;0.50;;
16654;SDS011;8441;51.344;7.022;2024-03-08T03:00:45;0.50;;;0.50;;
16654;SDS011;8441;51.344;7.022;2024-03-08T03:03:13;0.50;;;0.50;;
16654;SDS011;8441;51.344;7.022;2024-03-08T03:05:40;0.50;;;0.50;;
16654;SDS011;8441;51.344;7.022;2024-03-08T03:08:07;0.43;;;0.43;;
16654;SDS011;8441;51.344;7.022;2024-03-08T03:10:36;0.40;;;0.40;;
16654;SDS011;8441;51.344;7.022;2024-03-08T03:13:05;0.50;;;0.50;;
16654;SDS011;8441;51.344;7.022;2024-03-08T03:15:33;0.50;;;0.50;;
16654;SDS011;8441;51.344;7.022;2024-03-08T03:18:01;0.40;;;0.40;;
16654;SDS011;8441;51.344;7.022;2024-03-08T03:20:29;0.47;;;0.47;;
16654;SDS011;8441;51.344;7.022;2024-03-08T03:23:02;0.50;;;0.50;;
16654;SDS011;8441;51.344;7.022;2024-03-08T03:25:29;0.40;;;0.40;;
16654;SDS011;8441;51.344;7.022;2024-03-08T03:28:00;0.37;;;0.37;;
16654;SDS011;8441;51.344;7.022;2024-03-08T03:30:29;0.60;;;0.60;;
16654;SDS011;8441;51.344;7.022;2024-03-08T03:32:58;0.50;;;0.50;;
16654;SDS011;8441;51.344;7.022;2024-03-08T03:35:27;0.60;;;0.60;;
16654;SDS011;8441;51.344;7.022;2024-03-08T03:37:54;0.40;;;0.40;;
16654;SDS011;8441;51.344;7.022;2024-03-08T03:40:31;0.30;;;0.30;;
16654;SDS011;8441;51.344;7.022;2024-03-08T03:43:00;0.57;;;0.57;;
16654;SDS011;8441;51.344;7.022;2024-03-08T03:45:30;0.30;;;0.30;;
16654;SDS011;8441;51.344;7.022;2024-03-08T03:48:00;0.50;;;0.50;;
16654;SDS011;8441;51.344;7.022;2024-03-08T03:50:28;0.50;;;0.50;;
16654;SDS011;8441;51.344;7.022;2024-03-08T03:52:55;0.40;;;0.40;;
16654;SDS011;8441;51.344;7.022;2024-03-08T03:55:23;0.43;;;0.43;;
16654;SDS011;8441;51.344;7.022;2024-03-08T03:57:50;0.50;;;0.50;;
16654;SDS011;8441;51.344;7.022;2024-03-08T04:00:18;0.47;;;0.47;;
16654;SDS011;8441;51.344;7.022;2024-03-08T04:02:47;0.40;;;0.40;;
16654;SDS011;8441;51.344;7.022;2024-03-08T04:05:16;0.40;;;0.40;;
16654;SDS011;8441;51.344;7.022;2024-03-08T04:07:43;0.40;;;0.40;;
16654;SDS011;8441;51.344;7.022;2024-03-08T04:10:11;0.40;;;0.40;;
16654;SDS011;8441;51.344;7.022;2024-03-08T04:12:39;0.60;;;0.60;;
16654;SDS011;8441;51.344;7.022;2024-03-08T04:15:06;0.43;;;0.43;;
16654;SDS011;8441;51.344;7.022;2024-03-08T04:17:36;0.50;;;0.50;;
16654;SDS011;8441;51.344;7.022;2024-03-08T04:20:05;0.50;;;0.50;;
16654;SDS011;8441;51.344;7.022;2024-03-08T04:22:35;0.40;;;0.40;;
16654;SDS011;8441;51.344;7.022;2024-03-08T04:25:03;0.40;;;0.40;;
16654;SDS011;8441;51.344;7.022;2024-03-08T04:27:31;0.40;;;0.40;;
16654;SDS011;8441;51.344;7.022;2024-03-08T04:29:59;0.57;;;0.57;;
16654;SDS011;8441;51.344;7.022;2024-03-08T04:32:26;0.43;;;0.43;;
16654;SDS011;8441;51.344;7.022;2024-03-08T04:34:55;0.50;;;0.50;;
16654;SDS011;8441;51.344;7.022;2024-03-08T04:37:23;0.40;;;0.40;;
16654;SDS011;8441;51.344;7.022;2024-03-08T04:39:51;0.57;;;0.57;;
16654;SDS011;8441;51.344;7.022;2024-03-08T04:42:18;0.50;;;0.50;;
16654;SDS011;8441;51.344;7.022;2024-03-08T04:44:46;0.43;;;0.43;;
16654;SDS011;8441;51.344;7.022;2024-03-08T04:47:13;0.43;;;0.43;;
16654;SDS011;8441;51.344;7.022;2024-03-08T04:49:43;0.50;;;0.50;;
16654;SDS011;8441;51.344;7.022;2024-03-08T04:52:10;0.40;;;0.40;;
16654;SDS011;8441;51.344;7.022;2024-03-08T04:54:39;0.37;;;0.37;;
16654;SDS011;8441;51.344;7.022;2024-03-08T04:57:06;0.50;;;0.50;;
16654;SDS011;8441;51.344;7.022;2024-03-08T04:59:33;0.43;;;0.43;;
16654;SDS011;8441;51.344;7.022;2024-03-08T05:02:01;0.50;;;0.50;;
16654;SDS011;8441;51.344;7.022;2024-03-08T05:04:28;0.50;;;0.50;;
16654;SDS011;8441;51.344;7.022;2024-03-08T05:06:56;0.60;;;0.60;;
16654;SDS011;8441;51.344;7.022;2024-03-08T05:09:26;0.50;;;0.50;;
16654;SDS011;8441;51.344;7.022;2024-03-08T05:11:58;0.50;;;0.50;;
16654;SDS011;8441;51.344;7.022;2024-03-08T05:14:27;0.47;;;0.47;;
16654;SDS011;8441;51.344;7.022;2024-03-08T05:16:54;0.40;;;0.40;;
16654;SDS011;8441;51.344;7.022;2024-03-08T05:19:21;0.57;;;0.57;;
16654;SDS011;8441;51.344;7.022;2024-03-08T05:21:49;0.47;;;0.47;;
16654;SDS011;8441;51.344;7.022;2024-03-08T05:24:17;0.37;;;0.37;;
16654;SDS011;8441;51.344;7.022;2024-03-08T05:26:45;0.50;;;0.50;;
16654;SDS011;8441;51.344;7.022;2024-03-08T05:29:15;0.50;;;0.50;;
16654;SDS011;8441;51.344;7.022;2024-03-08T05:31:45;0.43;;;0.43;;
16654;SDS011;8441;51.344;7.022;2024-03-08T05:34:14;0.50;;;0.50;;
16654;SDS011;8441;51.344;7.022;2024-03-08T05:36:42;0.40;;;0.40;;
16654;SDS011;8441;51.344;7.022;2024-03-08T05:39:10;0.43;;;0.43;;
16654;SDS011;8441;51.344;7.022;2024-03-08T05:41:37;0.40;;;0.40;;
16654;SDS011;8441;51.344;7.022;2024-03-08T05:44:05;0.50;;;0.50;;
16654;SDS011;8441;51.344;7.022;2024-03-08T05:46:34;0.60;;;0.60;;
16654;SDS011;8441;51.344;7.022;2024-03-08T05:49:02;0.50;;;0.50;;
16654;SDS011;8441;51.344;7.022;2024-03-08T05:51:30;0.50;;;0.50;;
16654;SDS011;8441;51.344;7.022;2024-03-08T05:54:00;0.50;;;0.50;;
16654;SDS011;8441;51.344;7.022;2024-03-08T05:56:28;0.53;;;0.53;;
16654;SDS011;8441;51.344;7.022;2024-03-08T05:58:55;0.50;;;0.50;;
16654;SDS011;8441;51.344;7.022;2024-03-08T06:01:23;0.40;;;0.40;;
16654;SDS011;8441;51.344;7.022;2024-03-08T06:03:53;0.50;;;0.50;;
16654;SDS011;8441;51.344;7.022;2024-03-08T06:06:21;0.50;;;0.50;;
16654;SDS011;8441;51.344;7.022;2024-03-08T06:08:48;0.50;;;0.50;;
16654;SDS011;8441;51.344;7.022;2024-03-08T06:11:16;0.40;;;0.40;;
16654;SDS011;8441;51.344;7.022;2024-03-08T06:13:44;0.50;;;0.50;;
16654;SDS011;8441;51.344;7.022;2024-03-08T06:16:11;0.60;;;0.60;;
16654;SDS011;8441;51.344;7.022;2024-03-08T06:18:38;0.40;;;0.40;;
16654;SDS011;8441;51.344;7.022;2024-03-08T06:21:07;0.40;;;0.40;;
16654;SDS011;8441;51.344;7.022;2024-03-08T06:23:36;0.40;;;0.40;;
16654;SDS011;8441;51.344;7.022;2024-03-08T06:26:04;0.53;;;0.53;;
16654;SDS011;8441;51.344;7.022;2024-03-08T06:28:31;0.50;;;0.50;;
16654;SDS011;8441;51.344;7.022;2024-03-08T06:30:59;0.40;;;0.40;;
16654;SDS011;8441;51.344;7.022;2024-03-08T06:33:27;0.40;;;0.40;;
16654;SDS011;8441;51.344;7.022;2024-03-08T06:35:55;0.50;;;0.50;;
16654;SDS011;8441;51.344;7.022;2024-03-08T06:38:24;0.50;;;0.50;;
16654;SDS011;8441;51.344;7.022;2024-03-08T06:40:52;0.50;;;0.50;;
16654;SDS011;8441;51.344;7.022;2024-03-08T06:43:19;0.60;;;0.60;;
16654;SDS011;8441;51.344;7.022;2024-03-08T06:45:47;0.50;;;0.50;;
16654;SDS011;8441;51.344;7.022;2024-03-08T06:48:14;0.40;;;0.40;;
16654;SDS011;8441;51.344;7.022;2024-03-08T06:50:42;0.50;;;0.50;;
16654;SDS011;8441;51.344;7.022;2024-03-08T06:53:11;0.40;;;0.40;;
16654;SDS011;8441;51.344;7.022;2024-03-08T06:55:40;0.60;;;0.60;;
16654;SDS011;8441;51.344;7.022;2024-03-08T06:58:07;0.50;;;0.50;;
16654;SDS011;8441;51.344;7.022;2024-03-08T07:00:35;0.40;;;0.40;;
16654;SDS011;8441;51.344;7.022;2024-03-08T07:03:03;0.50;;;0.50;;
16654;SDS011;8441;51.344;7.022;2024-03-08T07:05:37;0.40;;;0.40;;
16654;SDS011;8441;51.344;7.022;2024-03-08T07:08:05;0.50;;;0.50;;
16654;SDS011;8441;51.344;7.022;2024-03-08T07:10:33;0.50;;;0.50;;
16654;SDS011;8441;51.344;7.022;2024-03-08T07:13:02;0.40;;;0.40;;
16654;SDS011;8441;51.344;7.022;2024-03-08T07:15:29;0.50;;;0.50;;
16654;SDS011;8441;51.344;7.022;2024-03-08T07:17:57;0.30;;;0.30;;
16654;SDS011;8441;51.344;7.022;2024-03-08T07:20:25;0.30;;;0.30;;
16654;SDS011;8441;51.344;7.022;2024-03-08T07:22:54;0.40;;;0.40;;
16654;SDS011;8441;51.344;7.022;2024-03-08T07:25:21;0.28;;;0.28;;
16654;SDS011;8441;51.344;7.022;2024-03-08T07:27:50;0.50;;;0.50;;
16654;SDS011;8441;51.344;7.022;2024-03-08T07:30:19;0.40;;;0.40;;
16654;SDS011;8441;51.344;7.022;2024-03-08T07:33:05;0.33;;;0.33;;
16654;SDS011;8441;51.344;7.022;2024-03-08T07:35:33;0.32;;;0.32;;
16654;SDS011;8441;51.344;7.022;2024-03-08T07:38:02;0.32;;;0.32;;
16654;SDS011;8441;51.344;7.022;2024-03-08T07:40:30;0.40;;;0.40;;
16654;SDS011;8441;51.344;7.022;2024-03-08T07:42:59;0.50;;;0.50;;
16654;SDS011;8441;51.344;7.022;2024-03-08T07:45:27;0.45;;;0.45;;
16654;SDS011;8441;51.344;7.022;2024-03-08T07:47:55;0.40;;;0.40;;
16654;SDS011;8441;51.344;7.022;2024-03-08T07:50:23;0.50;;;0.50;;
16654;SDS011;8441;51.344;7.022;2024-03-08T07:52:50;0.30;;;0.30;;
16654;SDS011;8441;51.344;7.022;2024-03-08T07:55:18;0.40;;;0.40;;
16654;SDS011;8441;51.344;7.022;2024-03-08T07:57:45;0.45;;;0.45;;
16654;SDS011;8441;51.344;7.022;2024-03-08T08:00:14;0.50;;;0.50;;
16654;SDS011;8441;51.344;7.022;2024-03-08T08:02:45;0.40;;;0.40;;
16654;SDS011;8441;51.344;7.022;2024-03-08T08:05:13;0.40;;;0.40;;
16654;SDS011;8441;51.344;7.022;2024-03-08T08:07:44;0.52;;;0.52;;
16654;SDS011;8441;51.344;7.022;2024-03-08T08:10:11;0.30;;;0.30;;
16654;SDS011;8441;51.344;7.022;2024-03-08T08:12:44;0.40;;;0.40;;
16654;SDS011;8441;51.344;7.022;2024-03-08T08:15:12;0.47;;;0.47;;
16654;SDS011;8441;51.344;7.022;2024-03-08T08:17:40;0.40;;;0.40;;
16654;SDS011;8441;51.344;7.022;2024-03-08T08:20:09;0.40;;;0.40;;
16654;SDS011;8441;51.344;7.022;2024-03-08T08:22:38;0.35;;;0.35;;
16654;SDS011;8441;51.344;7.022;2024-03-08T08:25:06;0.32;;;0.32;;
16654;SDS011;8441;51.344;7.022;2024-03-08T08:27:33;0.40;;;0.40;;
16654;SDS011;8441;51.344;7.022;2024-03-08T08:30:01;0.40;;;0.40;;
16654;SDS011;8441;51.344;7.022;2024-03-08T08:32:33;0.40;;;0.40;;
16654;SDS011;8441;51.344;7.022;2024-03-08T08:35:01;0.43;;;0.43;;
16654;SDS011;8441;51.344;7.022;2024-03-08T08:37:31;0.30;;;0.30;;
16654;SDS011;8441;51.344;7.022;2024-03-08T08:40:01;0.40;;;0.40;;
16654;SDS011;8441;51.344;7.022;2024-03-08T08:42:30;0.30;;;0.30;;
16654;SDS011;8441;51.344;7.022;2024-03-08T08:44:58;0.38;;;0.38;;
16654;SDS011;8441;51.344;7.022;2024-03-08T08:47:28;0.40;;;0.40;;
16654;SDS011;8441;51.344;7.022;2024-03-08T08:49:55;0.35;;;0.35;;
16654;SDS011;8441;51.344;7.022;2024-03-08T08:52:22;0.30;;;0.30;;
16654;SDS011;8441;51.344;7.022;2024-03-08T08:54:51;0.40;;;0.40;;
16654;SDS011;8441;51.344;7.022;2024-03-08T08:57:18;0.30;;;0.30;;
16654;SDS011;8441;51.344;7.022;2024-03-08T08:59:46;0.40;;;0.40;;
16654;SDS011;8441;51.344;7.022;2024-03-08T09:02:13;0.30;;;0.30;;
16654;SDS011;8441;51.344;7.022;2024-03-08T09:04:42;0.40;;;0.40;;
16654;SDS011;8441;51.344;7.022;2024-03-08T09:07:09;0.30;;;0.30;;
16654;SDS011;8441;51.344;7.022;2024-03-08T09:09:38;0.38;;;0.38;;
16654;SDS011;8441;51.344;7.022;2024-03-08T09:12:08;0.40;;;0.40;;
16654;SDS011;8441;51.344;7.022;2024-03-08T09:14:38;0.30;;;0.30;;
16654;SDS011;8441;51.344;7.022;2024-03-08T09:17:06;0.40;;;0.40;;
16654;SDS011;8441;51.344;7.022;2024-03-08T09:19:34;0.30;;;0.30;;
16654;SDS011;8441;51.344;7.022;2024-03-08T09:22:01;0.30;;;0.30;;
16654;SDS011;8441;51.344;7.022;2024-03-08T09:24:30;0.50;;;0.50;;
16654;SDS011;8441;51.344;7.022;2024-03-08T09:26:57;0.30;;;0.30;;
16654;SDS011;8441;51.344;7.022;2024-03-08T09:29:26;0.30;;;0.30;;
16654;SDS011;8441;51.344;7.022;2024-03-08T09:31:53;0.30;;;0.30;;
16654;SDS011;8441;51.344;7.022;2024-03-08T09:34:21;0.30;;;0.30;;
16654;SDS011;8441;51.344;7.022;2024-03-08T09:36:48;0.30;;;0.30;;
16654;SDS011;8441;51.344;7.022;2024-03-08T09:39:17;0.40;;;0.40;;
16654;SDS011;8441;51.344;7.022;2024-03-08T09:41:46;0.30;;;0.30;;
16654;SDS011;8441;51.344;7.022;2024-03-08T09:44:14;0.25;;;0.25;;
16654;SDS011;8441;51.344;7.022;2024-03-08T09:46:44;0.30;;;0.30;;
16654;SDS011;8441;51.344;7.022;2024-03-08T09:49:13;0.40;;;0.40;;
16654;SDS011;8441;51.344;7.022;2024-03-08T09:51:40;0.30;;;0.30;;
16654;SDS011;8441;51.344;7.022;2024-03-08T09:54:08;0.38;;;0.38;;
16654;SDS011;8441;51.344;7.022;2024-03-08T09:56:35;0.30;;;0.30;;
16654;SDS011;8441;51.344;7.022;2024-03-08T09:59:03;0.30;;;0.30;;
16654;SDS011;8441;51.344;7.022;2024-03-08T10:01:49;0.30;;;0.30;;
16654;SDS011;8441;51.344;7.022;2024-03-08T10:04:17;0.30;;;0.30;;
16654;SDS011;8441;51.344;7.022;2024-03-08T10:06:46;0.20;;;0.20;;
16654;SDS011;8441;51.344;7.022;2024-03-08T10:09:13;0.30;;;0.30;;
16654;SDS011;8441;51.344;7.022;2024-03-08T10:11:42;0.30;;;0.30;;
16654;SDS011;8441;51.344;7.022;2024-03-08T10:14:09;0.30;;;0.30;;
16654;SDS011;8441;51.344;7.022;2024-03-08T10:16:37;0.20;;;0.20;;
16654;SDS011;8441;51.344;7.022;2024-03-08T10:19:06;0.30;;;0.30;;
16654;SDS011;8441;51.344;7.022;2024-03-08T10:21:35;0.30;;;0.30;;
16654;SDS011;8441;51.344;7.022;2024-03-08T10:24:02;0.30;;;0.30;;
16654;SDS011;8441;51.344;7.022;2024-03-08T10:26:29;0.25;;;0.25;;
16654;SDS011;8441;51.344;7.022;2024-03-08T10:28:57;0.30;;;0.30;;
16654;SDS011;8441;51.344;7.022;2024-03-08T10:31:24;0.30;;;0.30;;
16654;SDS011;8441;51.344;7.022;2024-03-08T10:33:52;0.25;;;0.25;;
16654;SDS011;8441;51.344;7.022;2024-03-08T10:36:21;0.30;;;0.30;;
16654;SDS011;8441;51.344;7.022;2024-03-08T10:38:50;0.30;;;0.30;;
16654;SDS011;8441;51.344;7.022;2024-03-08T10:41:18;0.30;;;0.30;;
16654;SDS011;8441;51.344;7.022;2024-03-08T10:44:04;0.20;;;0.20;;
16654;SDS011;8441;51.344;7.022;2024-03-08T10:46:47;0.30;;;0.30;;
16654;SDS011;8441;51.344;7.022;2024-03-08T10:49:28;0.20;;;0.20;;
16654;SDS011;8441;51.344;7.022;2024-03-08T10:52:01;0.20;;;0.20;;
16654;SDS011;8441;51.344;7.022;2024-03-08T10:54:30;0.30;;;0.30;;
16654;SDS011;8441;51.344;7.022;2024-03-08T10:57:00;0.30;;;0.30;;
16654;SDS011;8441;51.344;7.022;2024-03-08T10:59:30;0.20;;;0.20;;
16654;SDS011;8441;51.344;7.022;2024-03-08T11:01:59;0.25;;;0.25;;
16654;SDS011;8441;51.344;7.022;2024-03-08T11:04:26;0.20;;;0.20;;
16654;SDS011;8441;51.344;7.022;2024-03-08T11:06:54;0.30;;;0.30;;
16654;SDS011;8441;51.344;7.022;2024-03-08T11:09:31;0.20;;;0.20;;
16654;SDS011;8441;51.344;7.022;2024-03-08T11:14:58;0.20;;;0.20;;
16654;SDS011;8441;51.344;7.022;2024-03-08T11:17:44;0.20;;;0.20;;
16654;SDS011;8441;51.344;7.022;2024-03-08T11:20:13;0.30;;;0.30;;
16654;SDS011;8441;51.344;7.022;2024-03-08T11:22:47;0.30;;;0.30;;
16654;SDS011;8441;51.344;7.022;2024-03-08T11:25:32;0.17;;;0.17;;
16654;SDS011;8441;51.344;7.022;2024-03-08T11:28:08;0.20;;;0.20;;
16654;SDS011;8441;51.344;7.022;2024-03-08T11:30:46;0.20;;;0.20;;
16654;SDS011;8441;51.344;7.022;2024-03-08T11:33:35;0.30;;;0.30;;
16654;SDS011;8441;51.344;7.022;2024-03-08T11:36:10;0.20;;;0.20;;
16654;SDS011;8441;51.344;7.022;2024-03-08T11:38:43;0.20;;;0.20;;
16654;SDS011;8441;51.344;7.022;2024-03-08T11:41:13;0.20;;;0.20;;
16654;SDS011;8441;51.344;7.022;2024-03-08T11:43:41;0.20;;;0.20;;
16654;SDS011;8441;51.344;7.022;2024-03-08T11:46:08;0.20;;;0.20;;
16654;SDS011;8441;51.344;7.022;2024-03-08T11:48:37;0.13;;;0.13;;
16654;SDS011;8441;51.344;7.022;2024-03-08T11:51:06;0.20;;;0.20;;
16654;SDS011;8441;51.344;7.022;2024-03-08T11:53:35;0.17;;;0.17;;
16654;SDS011;8441;51.344;7.022;2024-03-08T11:56:07;0.30;;;0.30;;
16654;SDS011;8441;51.344;7.022;2024-03-08T11:58:36;0.20;;;0.20;;
16654;SDS011;8441;51.344;7.022;2024-03-08T12:01:04;0.25;;;0.25;;
16654;SDS011;8441;51.344;7.022;2024-03-08T12:03:32;0.20;;;0.20;;
16654;SDS011;8441;51.344;7.022;2024-03-08T12:06:00;0.20;;;0.20;;
16654;SDS011;8441;51.344;7.022;2024-03-08T12:08:30;0.20;;;0.20;;
16654;SDS011;8441;51.344;7.022;2024-03-08T12:10:57;0.20;;;0.20;;
16654;SDS011;8441;51.344;7.022;2024-03-08T12:13:27;0.20;;;0.20;;
16654;SDS011;8441;51.344;7.022;2024-03-08T12:15:56;0.20;;;0.20;;
16654;SDS011;8441;51.344;7.022;2024-03-08T12:18:24;0.20;;;0.20;;
16654;SDS011;8441;51.344;7.022;2024-03-08T12:21:04;0.20;;;0.20;;
16654;SDS011;8441;51.344;7.022;2024-03-08T12:23:32;0.25;;;0.25;;
16654;SDS011;8441;51.344;7.022;2024-03-08T12:26:08;0.20;;;0.20;;
16654;SDS011;8441;51.344;7.022;2024-03-08T12:28:40;0.20;;;0.20;;
16654;SDS011;8441;51.344;7.022;2024-03-08T12:31:10;0.20;;;0.20;;
16654;SDS011;8441;51.344;7.022;2024-03-08T12:33:47;0.20;;;0.20;;
16654;SDS011;8441;51.344;7.022;2024-03-08T12:36:15;0.30;;;0.30;;
16654;SDS011;8441;51.344;7.022;2024-03-08T12:38:43;0.17;;;0.17;;
16654;SDS011;8441;51.344;7.022;2024-03-08T12:41:13;0.22;;;0.22;;
16654;SDS011;8441;51.344;7.022;2024-03-08T12:43:42;0.30;;;0.30;;
16654;SDS011;8441;51.344;7.022;2024-03-08T12:46:13;0.28;;;0.28;;
16654;SDS011;8441;51.344;7.022;2024-03-08T12:48:41;0.13;;;0.13;;
16654;SDS011;8441;51.344;7.022;2024-03-08T12:51:12;0.25;;;0.25;;
16654;SDS011;8441;51.344;7.022;2024-03-08T12:53:40;0.20;;;0.20;;
16654;SDS011;8441;51.344;7.022;2024-03-08T12:56:09;0.20;;;0.20;;
16654;SDS011;8441;51.344;7.022;2024-03-08T12:58:36;0.20;;;0.20;;
16654;SDS011;8441;51.344;7.022;2024-03-08T13:01:07;0.30;;;0.30;;
16654;SDS011;8441;51.344;7.022;2024-03-08T13:03:34;0.20;;;0.20;;
16654;SDS011;8441;51.344;7.022;2024-03-08T13:06:02;0.20;;;0.20;;
16654;SDS011;8441;51.344;7.022;2024-03-08T13:08:31;0.10;;;0.10;;
16654;SDS011;8441;51.344;7.022;2024-03-08T13:11:01;0.20;;;0.20;;
16654;SDS011;8441;51.344;7.022;2024-03-08T13:13:28;0.20;;;0.20;;
16654;SDS011;8441;51.344;7.022;2024-03-08T13:15:56;0.20;;;0.20;;
16654;SDS011;8441;51.344;7.022;2024-03-08T13:18:26;0.20;;;0.20;;
16654;SDS011;8441;51.344;7.022;2024-03-08T13:20:54;0.20;;;0.20;;
16654;SDS011;8441;51.344;7.022;2024-03-08T13:23:23;0.22;;;0.22;;
16654;SDS011;8441;51.344;7.022;2024-03-08T13:25:50;0.20;;;0.20;;
16654;SDS011;8441;51.344;7.022;2024-03-08T13:28:17;0.20;;;0.20;;
16654;SDS011;8441;51.344;7.022;2024-03-08T13:30:48;0.20;;;0.20;;
16654;SDS011;8441;51.344;7.022;2024-03-08T13:33:15;0.20;;;0.20;;
16654;SDS011;8441;51.344;7.022;2024-03-08T13:35:45;0.20;;;0.20;;
16654;SDS011;8441;51.344;7.022;2024-03-08T13:38:12;0.20;;;0.20;;
16654;SDS011;8441;51.344;7.022;2024-03-08T13:40:40;0.20;;;0.20;;
16654;SDS011;8441;51.344;7.022;2024-03-08T13:43:07;0.20;;;0.20;;
16654;SDS011;8441;51.344;7.022;2024-03-08T13:45:35;0.20;;;0.20;;
16654;SDS011;8441;51.344;7.022;2024-03-08T13:48:04;0.20;;;0.20;;
16654;SDS011;8441;51.344;7.022;2024-03-08T13:50:32;0.20;;;0.20;;
16654;SDS011;8441;51.344;7.022;2024-03-08T13:53:02;0.20;;;0.20;;
16654;SDS011;8441;51.344;7.022;2024-03-08T13:55:29;0.20;;;0.20;;
16654;SDS011;8441;51.344;7.022;2024-03-08T13:57:56;0.20;;;0.20;;
16654;SDS011;8441;51.344;7.022;2024-03-08T14:00:25;0.20;;;0.20;;
16654;SDS011;8441;51.344;7.022;2024-03-08T14:02:58;0.20;;;0.20;;
16654;SDS011;8441;51.344;7.022;2024-03-08T14:05:25;0.20;;;0.20;;
16654;SDS011;8441;51.344;7.022;2024-03-08T14:07:53;0.17;;;0.17;;
16654;SDS011;8441;51.344;7.022;2024-03-08T14:10:22;0.20;;;0.20;;
16654;SDS011;8441;51.344;7.022;2024-03-08T14:12:49;0.20;;;0.20;;
16654;SDS011;8441;51.344;7.022;2024-03-08T14:15:16;0.20;;;0.20;;
16654;SDS011;8441;51.344;7.022;2024-03-08T14:17:44;0.20;;;0.20;;
16654;SDS011;8441;51.344;7.022;2024-03-08T14:20:12;0.10;;;0.10;;
16654;SDS011;8441;51.344;7.022;2024-03-08T14:22:39;0.10;;;0.10;;
16654;SDS011;8441;51.344;7.022;2024-03-08T14:25:07;0.20;;;0.20;;
16654;SDS011;8441;51.344;7.022;2024-03-08T14:27:43;0.10;;;0.10;;
16654;SDS011;8441;51.344;7.022;2024-03-08T14:30:11;0.20;;;0.20;;
16654;SDS011;8441;51.344;7.022;2024-03-08T14:32:38;0.13;;;0.13;;
16654;SDS011;8441;51.344;7.022;2024-03-08T14:35:07;0.20;;;0.20;;
16654;SDS011;8441;51.344;7.022;2024-03-08T14:37:36;0.20;;;0.20;;
16654;SDS011;8441;51.344;7.022;2024-03-08T14:40:03;0.20;;;0.20;;
16654;SDS011;8441;51.344;7.022;2024-03-08T14:42:33;0.20;;;0.20;;
16654;SDS011;8441;51.344;7.022;2024-03-08T14:45:02;0.20;;;0.20;;
16654;SDS011;8441;51.344;7.022;2024-03-08T14:47:31;0.20;;;0.20;;
16654;SDS011;8441;51.344;7.022;2024-03-08T14:49:59;0.20;;;0.20;;
16654;SDS011;8441;51.344;7.022;2024-03-08T14:52:26;0.20;;;0.20;;
16654;SDS011;8441;51.344;7.022;2024-03-08T14:54:54;0.10;;;0.10;;
16654;SDS011;8441;51.344;7.022;2024-03-08T14:57:21;0.20;;;0.20;;
16654;SDS011;8441;51.344;7.022;2024-03-08T14:59:49;0.20;;;0.20;;
16654;SDS011;8441;51.344;7.022;2024-03-08T15:02:18;0.20;;;0.20;;
16654;SDS011;8441;51.344;7.022;2024-03-08T15:04:48;0.10;;;0.10;;
16654;SDS011;8441;51.344;7.022;2024-03-08T15:07:22;0.20;;;0.20;;
16654;SDS011;8441;51.344;7.022;2024-03-08T15:09:50;0.30;;;0.30;;
16654;SDS011;8441;51.344;7.022;2024-03-08T15:12:18;0.20;;;0.20;;